sensor_id;sensor_type;location;lat;lon;timestamp;P1;durP1;ratioP1;P2;durP2;ratioP2
56419;SDS011;42323;52.170;7.538;2022-11-20T00:01:28;5.25;;;4.93;;
56419;SDS011;42323;52.170;7.538;2022-11-20T00:03:56;6.10;;;5.50;;
56419;SDS011;42323;52.170;7.538;2022-11-20T00:06:24;7.35;;;6.75;;
56419;SDS011;42323;52.170;7.538;2022-11-20T00:08:53;5.60;;;5.15;;
56419;SDS011;42323;52.170;7.538;2022-11-20T00:11:22;6.32;;;5.90;;
56419;SDS011;42323;52.170;7.538;2022-11-20T00:13:51;8.77;;;6.05;;
56419;SDS011;42323;52.170;7.538;2022-11-20T00:16:21;6.03;;;5.45;;
56419;SDS011;42323;52.170;7.538;2022-11-20T00:18:50;8.07;;;7.38;;
56419;SDS011;42323;52.170;7.538;2022-11-20T00:21:24;7.45;;;6.78;;
56419;SDS011;42323;52.170;7.538;2022-11-20T00:23:53;12.63;;;7.25;;
56419;SDS011;42323;52.170;7.538;2022-11-20T00:26:21;7.35;;;6.75;;
56419;SDS011;42323;52.170;7.538;2022-11-20T00:28:52;5.97;;;5.50;;
56419;SDS011;42323;52.170;7.538;2022-11-20T00:31:21;15.38;;;7.50;;
56419;SDS011;42323;52.170;7.538;2022-11-20T00:33:48;6.68;;;6.18;;
56419;SDS011;42323;52.170;7.538;2022-11-20T00:36:19;6.72;;;5.35;;
56419;SDS011;42323;52.170;7.538;2022-11-20T00:38:51;7.75;;;7.15;;
56419;SDS011;42323;52.170;7.538;2022-11-20T00:41:22;8.63;;;7.80;;
56419;SDS011;42323;52.170;7.538;2022-11-20T00:43:54;6.75;;;6.25;;
56419;SDS011;42323;52.170;7.538;2022-11-20T00:46:22;3.78;;;3.58;;
56419;SDS011;42323;52.170;7.538;2022-11-20T00:48:50;7.72;;;6.82;;
56419;SDS011;42323;52.170;7.538;2022-11-20T00:51:18;5.43;;;5.13;;
56419;SDS011;42323;52.170;7.538;2022-11-20T00:53:46;10.45;;;7.97;;
56419;SDS011;42323;52.170;7.538;2022-11-20T00:56:14;4.88;;;4.57;;
56419;SDS011;42323;52.170;7.538;2022-11-20T00:58:43;12.30;;;6.60;;
56419;SDS011;42323;52.170;7.538;2022-11-20T01:01:14;8.13;;;7.47;;
56419;SDS011;42323;52.170;7.538;2022-11-20T01:03:49;6.95;;;5.20;;
56419;SDS011;42323;52.170;7.538;2022-11-20T01:09:13;7.82;;;7.18;;
56419;SDS011;42323;52.170;7.538;2022-11-20T01:11:42;6.75;;;6.05;;
56419;SDS011;42323;52.170;7.538;2022-11-20T01:14:12;9.82;;;8.35;;
56419;SDS011;42323;52.170;7.538;2022-11-20T01:16:41;7.63;;;7.00;;
56419;SDS011;42323;52.170;7.538;2022-11-20T01:19:12;7.15;;;6.22;;
56419;SDS011;42323;52.170;7.538;2022-11-20T01:21:45;6.57;;;5.22;;
56419;SDS011;42323;52.170;7.538;2022-11-20T01:24:15;5.32;;;5.03;;
56419;SDS011;42323;52.170;7.538;2022-11-20T01:26:43;7.88;;;7.22;;
56419;SDS011;42323;52.170;7.538;2022-11-20T01:29:16;8.00;;;7.38;;
56419;SDS011;42323;52.170;7.538;2022-11-20T01:31:45;5.22;;;4.70;;
56419;SDS011;42323;52.170;7.538;2022-11-20T01:34:13;4.95;;;4.65;;
56419;SDS011;42323;52.170;7.538;2022-11-20T01:36:41;5.90;;;5.50;;
56419;SDS011;42323;52.170;7.538;2022-11-20T01:41:40;6.53;;;5.53;;
56419;SDS011;42323;52.170;7.538;2022-11-20T01:47:30;7.40;;;6.75;;
56419;SDS011;42323;52.170;7.538;2022-11-20T01:52:42;6.97;;;6.43;;
56419;SDS011;42323;52.170;7.538;2022-11-20T01:55:15;9.20;;;6.90;;
56419;SDS011;42323;52.170;7.538;2022-11-20T01:57:47;7.57;;;5.70;;
56419;SDS011;42323;52.170;7.538;2022-11-20T02:00:16;6.60;;;5.45;;
56419;SDS011;42323;52.170;7.538;2022-11-20T02:02:46;9.63;;;6.03;;
56419;SDS011;42323;52.170;7.538;2022-11-20T02:05:19;4.90;;;4.57;;
56419;SDS011;42323;52.170;7.538;2022-11-20T02:07:53;6.68;;;6.07;;
56419;SDS011;42323;52.170;7.538;2022-11-20T02:31:47;6.38;;;5.93;;
56419;SDS011;42323;52.170;7.538;2022-11-20T02:34:14;12.63;;;7.30;;
56419;SDS011;42323;52.170;7.538;2022-11-20T02:36:40;7.25;;;4.63;;
56419;SDS011;42323;52.170;7.538;2022-11-20T02:39:09;4.75;;;4.35;;
56419;SDS011;42323;52.170;7.538;2022-11-20T02:41:38;5.22;;;4.93;;
56419;SDS011;42323;52.170;7.538;2022-11-20T02:44:05;4.13;;;3.92;;
56419;SDS011;42323;52.170;7.538;2022-11-20T02:46:32;5.80;;;5.28;;
56419;SDS011;42323;52.170;7.538;2022-11-20T02:49:03;5.45;;;5.05;;
56419;SDS011;42323;52.170;7.538;2022-11-20T02:51:30;5.40;;;5.10;;
56419;SDS011;42323;52.170;7.538;2022-11-20T02:53:58;7.05;;;4.55;;
56419;SDS011;42323;52.170;7.538;2022-11-20T02:56:25;7.32;;;6.55;;
56419;SDS011;42323;52.170;7.538;2022-11-20T02:58:52;5.60;;;5.20;;
56419;SDS011;42323;52.170;7.538;2022-11-20T03:01:19;4.72;;;4.45;;
56419;SDS011;42323;52.170;7.538;2022-11-20T03:03:45;3.90;;;3.70;;
56419;SDS011;42323;52.170;7.538;2022-11-20T03:06:15;9.50;;;5.53;;
56419;SDS011;42323;52.170;7.538;2022-11-20T03:08:43;5.03;;;4.68;;
56419;SDS011;42323;52.170;7.538;2022-11-20T03:32:38;3.47;;;3.28;;
56419;SDS011;42323;52.170;7.538;2022-11-20T03:35:06;4.18;;;3.95;;
56419;SDS011;42323;52.170;7.538;2022-11-20T03:42:50;6.53;;;4.10;;
56419;SDS011;42323;52.170;7.538;2022-11-20T03:45:17;4.55;;;4.22;;
56419;SDS011;42323;52.170;7.538;2022-11-20T03:47:45;9.63;;;4.60;;
56419;SDS011;42323;52.170;7.538;2022-11-20T04:52:06;4.93;;;4.63;;
56419;SDS011;42323;52.170;7.538;2022-11-20T04:54:32;4.53;;;4.32;;
56419;SDS011;42323;52.170;7.538;2022-11-20T04:56:59;3.78;;;3.58;;
56419;SDS011;42323;52.170;7.538;2022-11-20T04:59:26;5.97;;;5.47;;
56419;SDS011;42323;52.170;7.538;2022-11-20T05:01:53;4.97;;;4.70;;
56419;SDS011;42323;52.170;7.538;2022-11-20T05:04:19;4.97;;;4.53;;
56419;SDS011;42323;52.170;7.538;2022-11-20T05:06:46;5.45;;;5.15;;
56419;SDS011;42323;52.170;7.538;2022-11-20T05:09:13;5.15;;;4.85;;
56419;SDS011;42323;52.170;7.538;2022-11-20T05:11:40;3.10;;;3.00;;
56419;SDS011;42323;52.170;7.538;2022-11-20T05:14:07;4.38;;;4.07;;
56419;SDS011;42323;52.170;7.538;2022-11-20T05:16:33;4.45;;;4.25;;
56419;SDS011;42323;52.170;7.538;2022-11-20T05:19:01;2.60;;;2.50;;
56419;SDS011;42323;52.170;7.538;2022-11-20T05:21:30;3.50;;;3.33;;
56419;SDS011;42323;52.170;7.538;2022-11-20T05:23:57;4.80;;;4.25;;
56419;SDS011;42323;52.170;7.538;2022-11-20T05:26:24;4.70;;;4.38;;
56419;SDS011;42323;52.170;7.538;2022-11-20T05:28:51;3.65;;;3.45;;
56419;SDS011;42323;52.170;7.538;2022-11-20T07:51:34;3.58;;;3.38;;
56419;SDS011;42323;52.170;7.538;2022-11-20T07:54:01;4.22;;;4.03;;
56419;SDS011;42323;52.170;7.538;2022-11-20T07:56:28;4.38;;;4.13;;
56419;SDS011;42323;52.170;7.538;2022-11-20T07:58:54;4.88;;;4.55;;
56419;SDS011;42323;52.170;7.538;2022-11-20T08:01:21;3.72;;;3.53;;
56419;SDS011;42323;52.170;7.538;2022-11-20T08:03:48;6.05;;;4.45;;
56419;SDS011;42323;52.170;7.538;2022-11-20T08:06:15;4.80;;;4.15;;
56419;SDS011;42323;52.170;7.538;2022-11-20T08:08:42;3.17;;;3.05;;
56419;SDS011;42323;52.170;7.538;2022-11-20T08:21:42;4.07;;;3.88;;
56419;SDS011;42323;52.170;7.538;2022-11-20T08:24:14;7.28;;;6.72;;
56419;SDS011;42323;52.170;7.538;2022-11-20T08:26:41;2.80;;;2.70;;
56419;SDS011;42323;52.170;7.538;2022-11-20T08:29:09;4.38;;;4.15;;
56419;SDS011;42323;52.170;7.538;2022-11-20T08:31:35;2.85;;;2.75;;
56419;SDS011;42323;52.170;7.538;2022-11-20T08:34:02;3.28;;;3.08;;
56419;SDS011;42323;52.170;7.538;2022-11-20T08:36:34;3.72;;;3.53;;
56419;SDS011;42323;52.170;7.538;2022-11-20T08:39:02;5.60;;;5.28;;
56419;SDS011;42323;52.170;7.538;2022-11-20T08:41:29;3.35;;;3.15;;
56419;SDS011;42323;52.170;7.538;2022-11-20T08:44:00;3.20;;;3.00;;
56419;SDS011;42323;52.170;7.538;2022-11-20T08:46:34;3.42;;;3.25;;
56419;SDS011;42323;52.170;7.538;2022-11-20T08:49:05;5.75;;;5.22;;
56419;SDS011;42323;52.170;7.538;2022-11-20T10:32:34;28.55;;;10.38;;
56419;SDS011;42323;52.170;7.538;2022-11-20T10:35:52;22.80;;;10.02;;
56419;SDS011;42323;52.170;7.538;2022-11-20T10:38:00;25.50;;;10.45;;
56419;SDS011;42323;52.170;7.538;2022-11-20T10:40:31;17.77;;;10.43;;
56419;SDS011;42323;52.170;7.538;2022-11-20T10:43:13;23.23;;;9.70;;
56419;SDS011;42323;52.170;7.538;2022-11-20T10:48:23;24.10;;;10.32;;
56419;SDS011;42323;52.170;7.538;2022-11-20T11:01:50;26.30;;;11.73;;
56419;SDS011;42323;52.170;7.538;2022-11-20T11:07:10;18.08;;;9.50;;
56419;SDS011;42323;52.170;7.538;2022-11-20T11:09:52;25.92;;;10.65;;
56419;SDS011;42323;52.170;7.538;2022-11-20T11:25:42;29.60;;;11.43;;
56419;SDS011;42323;52.170;7.538;2022-11-20T11:28:25;22.00;;;11.02;;
56419;SDS011;42323;52.170;7.538;2022-11-20T12:17:03;33.42;;;16.60;;
56419;SDS011;42323;52.170;7.538;2022-11-20T12:19:31;32.22;;;14.90;;
56419;SDS011;42323;52.170;7.538;2022-11-20T12:30:10;30.42;;;15.82;;
56419;SDS011;42323;52.170;7.538;2022-11-20T12:35:58;27.60;;;14.67;;
56419;SDS011;42323;52.170;7.538;2022-11-20T12:38:52;27.23;;;13.57;;
56419;SDS011;42323;52.170;7.538;2022-11-20T12:58:30;32.33;;;15.48;;
56419;SDS011;42323;52.170;7.538;2022-11-20T13:01:42;24.27;;;13.90;;
56419;SDS011;42323;52.170;7.538;2022-11-20T13:07:11;10.43;;;6.07;;
56419;SDS011;42323;52.170;7.538;2022-11-20T13:09:42;9.73;;;6.13;;
56419;SDS011;42323;52.170;7.538;2022-11-20T13:20:20;8.95;;;5.50;;
56419;SDS011;42323;52.170;7.538;2022-11-20T13:22:48;10.30;;;6.20;;
56419;SDS011;42323;52.170;7.538;2022-11-20T13:25:37;10.32;;;6.30;;
56419;SDS011;42323;52.170;7.538;2022-11-20T13:30:35;10.68;;;6.13;;
56419;SDS011;42323;52.170;7.538;2022-11-20T13:33:05;14.35;;;6.97;;
56419;SDS011;42323;52.170;7.538;2022-11-20T13:35:36;9.18;;;6.00;;
56419;SDS011;42323;52.170;7.538;2022-11-20T13:38:08;9.50;;;6.07;;
56419;SDS011;42323;52.170;7.538;2022-11-20T13:40:54;12.05;;;7.43;;
56419;SDS011;42323;52.170;7.538;2022-11-20T13:49:05;23.73;;;11.60;;
56419;SDS011;42323;52.170;7.538;2022-11-20T14:02:27;25.75;;;14.15;;
56419;SDS011;42323;52.170;7.538;2022-11-20T14:04:59;30.90;;;15.23;;
56419;SDS011;42323;52.170;7.538;2022-11-20T14:07:32;27.80;;;14.40;;
56419;SDS011;42323;52.170;7.538;2022-11-20T14:10:22;28.02;;;15.85;;
56419;SDS011;42323;52.170;7.538;2022-11-20T14:12:57;28.23;;;12.68;;
56419;SDS011;42323;52.170;7.538;2022-11-20T14:15:28;27.67;;;13.40;;
56419;SDS011;42323;52.170;7.538;2022-11-20T14:17:59;27.50;;;13.13;;
56419;SDS011;42323;52.170;7.538;2022-11-20T14:20:41;26.25;;;13.13;;
56419;SDS011;42323;52.170;7.538;2022-11-20T14:23:09;30.02;;;12.88;;
56419;SDS011;42323;52.170;7.538;2022-11-20T14:25:37;26.60;;;13.40;;
56419;SDS011;42323;52.170;7.538;2022-11-20T14:28:11;27.48;;;12.77;;
56419;SDS011;42323;52.170;7.538;2022-11-20T14:30:49;28.20;;;13.50;;
56419;SDS011;42323;52.170;7.538;2022-11-20T14:33:16;22.45;;;12.38;;
56419;SDS011;42323;52.170;7.538;2022-11-20T14:35:44;26.27;;;14.20;;
56419;SDS011;42323;52.170;7.538;2022-11-20T14:38:13;27.75;;;14.77;;
56419;SDS011;42323;52.170;7.538;2022-11-20T14:40:43;32.42;;;15.15;;
56419;SDS011;42323;52.170;7.538;2022-11-20T14:45:57;25.05;;;13.60;;
56419;SDS011;42323;52.170;7.538;2022-11-20T14:48:29;26.13;;;13.40;;
56419;SDS011;42323;52.170;7.538;2022-11-20T14:51:00;25.95;;;13.75;;
56419;SDS011;42323;52.170;7.538;2022-11-20T14:53:27;23.27;;;13.90;;
56419;SDS011;42323;52.170;7.538;2022-11-20T14:55:54;28.13;;;14.25;;
56419;SDS011;42323;52.170;7.538;2022-11-20T14:58:27;35.92;;;16.17;;
56419;SDS011;42323;52.170;7.538;2022-11-20T15:00:57;24.70;;;13.07;;
56419;SDS011;42323;52.170;7.538;2022-11-20T15:03:46;22.08;;;12.35;;
56419;SDS011;42323;52.170;7.538;2022-11-20T15:06:25;27.48;;;12.93;;
56419;SDS011;42323;52.170;7.538;2022-11-20T15:08:53;26.83;;;14.38;;
56419;SDS011;42323;52.170;7.538;2022-11-20T15:11:22;25.48;;;12.80;;
56419;SDS011;42323;52.170;7.538;2022-11-20T15:14:02;28.05;;;14.20;;
56419;SDS011;42323;52.170;7.538;2022-11-20T15:21:47;27.85;;;14.00;;
56419;SDS011;42323;52.170;7.538;2022-11-20T15:24:15;25.88;;;14.43;;
56419;SDS011;42323;52.170;7.538;2022-11-20T15:26:42;32.00;;;15.65;;
56419;SDS011;42323;52.170;7.538;2022-11-20T15:29:12;31.88;;;16.35;;
56419;SDS011;42323;52.170;7.538;2022-11-20T15:31:44;27.73;;;14.20;;
56419;SDS011;42323;52.170;7.538;2022-11-20T15:34:12;22.67;;;14.25;;
56419;SDS011;42323;52.170;7.538;2022-11-20T15:36:39;31.00;;;15.30;;
56419;SDS011;42323;52.170;7.538;2022-11-20T15:39:06;27.02;;;14.30;;
56419;SDS011;42323;52.170;7.538;2022-11-20T15:41:34;31.27;;;14.45;;
56419;SDS011;42323;52.170;7.538;2022-11-20T15:44:01;23.65;;;14.27;;
56419;SDS011;42323;52.170;7.538;2022-11-20T15:46:30;25.45;;;14.15;;
56419;SDS011;42323;52.170;7.538;2022-11-20T15:49:04;25.60;;;15.00;;
56419;SDS011;42323;52.170;7.538;2022-11-20T15:51:38;27.95;;;14.25;;
56419;SDS011;42323;52.170;7.538;2022-11-20T15:54:11;33.35;;;17.08;;
56419;SDS011;42323;52.170;7.538;2022-11-20T15:56:38;27.65;;;16.27;;
56419;SDS011;42323;52.170;7.538;2022-11-20T15:59:05;32.25;;;17.50;;
56419;SDS011;42323;52.170;7.538;2022-11-20T16:01:32;32.78;;;18.20;;
56419;SDS011;42323;52.170;7.538;2022-11-20T16:03:59;33.28;;;18.35;;
56419;SDS011;42323;52.170;7.538;2022-11-20T16:06:26;31.60;;;16.85;;
56419;SDS011;42323;52.170;7.538;2022-11-20T16:08:53;28.70;;;13.05;;
56419;SDS011;42323;52.170;7.538;2022-11-20T16:11:23;26.63;;;12.65;;
56419;SDS011;42323;52.170;7.538;2022-11-20T16:13:51;25.98;;;12.57;;
56419;SDS011;42323;52.170;7.538;2022-11-20T16:16:37;24.17;;;12.30;;
56419;SDS011;42323;52.170;7.538;2022-11-20T16:19:05;23.25;;;11.10;;
56419;SDS011;42323;52.170;7.538;2022-11-20T16:21:35;23.52;;;11.43;;
56419;SDS011;42323;52.170;7.538;2022-11-20T16:24:13;18.90;;;10.80;;
56419;SDS011;42323;52.170;7.538;2022-11-20T16:26:46;18.10;;;10.75;;
56419;SDS011;42323;52.170;7.538;2022-11-20T16:29:15;23.10;;;11.45;;
56419;SDS011;42323;52.170;7.538;2022-11-20T16:31:41;22.65;;;12.45;;
56419;SDS011;42323;52.170;7.538;2022-11-20T16:34:08;29.38;;;13.50;;
56419;SDS011;42323;52.170;7.538;2022-11-20T16:36:41;24.63;;;12.45;;
56419;SDS011;42323;52.170;7.538;2022-11-20T16:39:10;26.70;;;13.70;;
56419;SDS011;42323;52.170;7.538;2022-11-20T16:41:37;23.65;;;13.02;;
56419;SDS011;42323;52.170;7.538;2022-11-20T16:44:08;20.23;;;12.00;;
56419;SDS011;42323;52.170;7.538;2022-11-20T16:46:38;27.27;;;11.95;;
56419;SDS011;42323;52.170;7.538;2022-11-20T16:49:08;21.77;;;12.00;;
56419;SDS011;42323;52.170;7.538;2022-11-20T16:51:38;18.35;;;10.90;;
56419;SDS011;42323;52.170;7.538;2022-11-20T16:54:12;23.88;;;12.73;;
56419;SDS011;42323;52.170;7.538;2022-11-20T16:56:46;21.90;;;10.90;;
56419;SDS011;42323;52.170;7.538;2022-11-20T16:59:13;20.52;;;11.55;;
56419;SDS011;42323;52.170;7.538;2022-11-20T17:01:43;19.50;;;11.05;;
56419;SDS011;42323;52.170;7.538;2022-11-20T17:04:11;22.45;;;12.88;;
56419;SDS011;42323;52.170;7.538;2022-11-20T17:06:40;25.05;;;12.13;;
56419;SDS011;42323;52.170;7.538;2022-11-20T17:09:09;20.17;;;12.07;;
56419;SDS011;42323;52.170;7.538;2022-11-20T17:11:36;27.42;;;13.23;;
56419;SDS011;42323;52.170;7.538;2022-11-20T17:14:03;24.17;;;11.48;;
56419;SDS011;42323;52.170;7.538;2022-11-20T17:16:33;22.52;;;10.90;;
56419;SDS011;42323;52.170;7.538;2022-11-20T17:19:02;19.73;;;11.90;;
56419;SDS011;42323;52.170;7.538;2022-11-20T17:21:31;24.20;;;11.75;;
56419;SDS011;42323;52.170;7.538;2022-11-20T17:24:02;22.92;;;10.77;;
56419;SDS011;42323;52.170;7.538;2022-11-20T17:26:30;16.30;;;9.55;;
56419;SDS011;42323;52.170;7.538;2022-11-20T17:29:01;16.02;;;10.20;;
56419;SDS011;42323;52.170;7.538;2022-11-20T17:31:33;18.92;;;10.18;;
56419;SDS011;42323;52.170;7.538;2022-11-20T17:34:06;20.20;;;10.68;;
56419;SDS011;42323;52.170;7.538;2022-11-20T17:36:36;17.50;;;10.07;;
56419;SDS011;42323;52.170;7.538;2022-11-20T17:39:11;23.35;;;10.82;;
56419;SDS011;42323;52.170;7.538;2022-11-20T17:41:42;14.18;;;8.60;;
56419;SDS011;42323;52.170;7.538;2022-11-20T17:44:09;19.00;;;9.63;;
56419;SDS011;42323;52.170;7.538;2022-11-20T17:46:37;17.13;;;9.80;;
56419;SDS011;42323;52.170;7.538;2022-11-20T17:49:04;16.65;;;8.07;;
56419;SDS011;42323;52.170;7.538;2022-11-20T17:51:31;18.27;;;10.82;;
56419;SDS011;42323;52.170;7.538;2022-11-20T17:54:01;19.58;;;9.93;;
56419;SDS011;42323;52.170;7.538;2022-11-20T17:56:33;22.20;;;10.65;;
56419;SDS011;42323;52.170;7.538;2022-11-20T17:59:19;19.52;;;9.43;;
56419;SDS011;42323;52.170;7.538;2022-11-20T18:01:47;18.23;;;10.05;;
56419;SDS011;42323;52.170;7.538;2022-11-20T18:04:16;20.35;;;10.52;;
56419;SDS011;42323;52.170;7.538;2022-11-20T18:06:46;21.63;;;11.18;;
56419;SDS011;42323;52.170;7.538;2022-11-20T18:11:52;20.77;;;9.97;;
56419;SDS011;42323;52.170;7.538;2022-11-20T18:16:55;19.80;;;10.10;;
56419;SDS011;42323;52.170;7.538;2022-11-20T18:19:33;16.02;;;9.48;;
56419;SDS011;42323;52.170;7.538;2022-11-20T18:30:18;21.27;;;9.63;;
56419;SDS011;42323;52.170;7.538;2022-11-20T18:32:46;18.10;;;9.82;;
56419;SDS011;42323;52.170;7.538;2022-11-20T18:37:47;17.27;;;8.80;;
56419;SDS011;42323;52.170;7.538;2022-11-20T18:40:14;16.55;;;10.00;;
56419;SDS011;42323;52.170;7.538;2022-11-20T18:42:43;23.17;;;11.55;;
56419;SDS011;42323;52.170;7.538;2022-11-20T18:45:28;19.83;;;10.40;;
56419;SDS011;42323;52.170;7.538;2022-11-20T18:47:55;21.60;;;10.85;;
56419;SDS011;42323;52.170;7.538;2022-11-20T18:50:22;23.98;;;11.05;;
56419;SDS011;42323;52.170;7.538;2022-11-20T18:52:49;17.55;;;9.02;;
56419;SDS011;42323;52.170;7.538;2022-11-20T18:55:16;21.70;;;10.55;;
56419;SDS011;42323;52.170;7.538;2022-11-20T18:57:43;17.52;;;9.73;;
56419;SDS011;42323;52.170;7.538;2022-11-20T19:00:10;19.75;;;10.32;;
56419;SDS011;42323;52.170;7.538;2022-11-20T19:02:37;19.77;;;9.93;;
56419;SDS011;42323;52.170;7.538;2022-11-20T19:05:08;19.23;;;10.48;;
56419;SDS011;42323;52.170;7.538;2022-11-20T19:07:39;18.15;;;9.63;;
56419;SDS011;42323;52.170;7.538;2022-11-20T19:10:08;24.27;;;12.40;;
56419;SDS011;42323;52.170;7.538;2022-11-20T19:12:35;22.70;;;11.10;;
56419;SDS011;42323;52.170;7.538;2022-11-20T19:15:03;16.42;;;9.90;;
56419;SDS011;42323;52.170;7.538;2022-11-20T19:17:31;22.02;;;12.38;;
56419;SDS011;42323;52.170;7.538;2022-11-20T19:19:58;16.77;;;10.40;;
56419;SDS011;42323;52.170;7.538;2022-11-20T19:22:25;19.50;;;11.52;;
56419;SDS011;42323;52.170;7.538;2022-11-20T19:24:52;29.20;;;12.45;;
56419;SDS011;42323;52.170;7.538;2022-11-20T19:27:18;22.45;;;11.48;;
56419;SDS011;42323;52.170;7.538;2022-11-20T19:29:45;19.33;;;9.93;;
56419;SDS011;42323;52.170;7.538;2022-11-20T19:32:12;20.35;;;11.23;;
56419;SDS011;42323;52.170;7.538;2022-11-20T19:34:38;20.45;;;10.13;;
56419;SDS011;42323;52.170;7.538;2022-11-20T19:37:05;21.42;;;11.68;;
56419;SDS011;42323;52.170;7.538;2022-11-20T19:39:32;22.15;;;10.93;;
56419;SDS011;42323;52.170;7.538;2022-11-20T19:42:00;24.65;;;11.30;;
56419;SDS011;42323;52.170;7.538;2022-11-20T19:44:27;22.83;;;12.32;;
56419;SDS011;42323;52.170;7.538;2022-11-20T19:46:54;18.60;;;10.90;;
56419;SDS011;42323;52.170;7.538;2022-11-20T19:49:22;20.42;;;10.80;;
56419;SDS011;42323;52.170;7.538;2022-11-20T19:51:49;19.67;;;9.88;;
56419;SDS011;42323;52.170;7.538;2022-11-20T19:54:16;19.98;;;10.65;;
56419;SDS011;42323;52.170;7.538;2022-11-20T19:56:43;22.13;;;10.00;;
56419;SDS011;42323;52.170;7.538;2022-11-20T19:59:15;27.27;;;10.98;;
56419;SDS011;42323;52.170;7.538;2022-11-20T20:01:42;20.55;;;9.90;;
56419;SDS011;42323;52.170;7.538;2022-11-20T20:04:12;18.77;;;10.85;;
56419;SDS011;42323;52.170;7.538;2022-11-20T20:06:39;21.25;;;9.52;;
56419;SDS011;42323;52.170;7.538;2022-11-20T20:09:08;23.17;;;10.43;;
56419;SDS011;42323;52.170;7.538;2022-11-20T20:11:37;18.20;;;10.05;;
56419;SDS011;42323;52.170;7.538;2022-11-20T20:14:09;16.83;;;10.23;;
56419;SDS011;42323;52.170;7.538;2022-11-20T20:16:40;17.13;;;10.05;;
56419;SDS011;42323;52.170;7.538;2022-11-20T20:19:12;16.20;;;9.77;;
56419;SDS011;42323;52.170;7.538;2022-11-20T20:21:43;16.58;;;9.63;;
56419;SDS011;42323;52.170;7.538;2022-11-20T20:24:10;16.63;;;9.43;;
56419;SDS011;42323;52.170;7.538;2022-11-20T20:26:37;18.50;;;9.15;;
56419;SDS011;42323;52.170;7.538;2022-11-20T20:29:04;19.63;;;9.13;;
56419;SDS011;42323;52.170;7.538;2022-11-20T20:31:30;16.73;;;9.20;;
56419;SDS011;42323;52.170;7.538;2022-11-20T20:34:01;16.95;;;10.15;;
56419;SDS011;42323;52.170;7.538;2022-11-20T20:36:30;14.73;;;8.60;;
56419;SDS011;42323;52.170;7.538;2022-11-20T20:38:58;16.33;;;10.15;;
56419;SDS011;42323;52.170;7.538;2022-11-20T20:41:26;19.73;;;9.48;;
56419;SDS011;42323;52.170;7.538;2022-11-20T20:43:53;14.10;;;8.88;;
56419;SDS011;42323;52.170;7.538;2022-11-20T20:46:39;18.60;;;9.95;;
56419;SDS011;42323;52.170;7.538;2022-11-20T20:49:06;18.35;;;10.00;;
56419;SDS011;42323;52.170;7.538;2022-11-20T20:51:34;19.17;;;10.43;;
56419;SDS011;42323;52.170;7.538;2022-11-20T20:54:01;16.50;;;8.55;;
56419;SDS011;42323;52.170;7.538;2022-11-20T20:56:29;20.15;;;10.32;;
56419;SDS011;42323;52.170;7.538;2022-11-20T20:58:56;24.40;;;11.75;;
56419;SDS011;42323;52.170;7.538;2022-11-20T21:01:22;15.95;;;9.10;;
56419;SDS011;42323;52.170;7.538;2022-11-20T21:03:54;19.05;;;9.98;;
56419;SDS011;42323;52.170;7.538;2022-11-20T21:06:22;14.55;;;7.95;;
56419;SDS011;42323;52.170;7.538;2022-11-20T21:08:49;17.55;;;9.88;;
56419;SDS011;42323;52.170;7.538;2022-11-20T21:11:17;20.67;;;9.13;;
56419;SDS011;42323;52.170;7.538;2022-11-20T21:13:45;21.08;;;9.85;;
56419;SDS011;42323;52.170;7.538;2022-11-20T21:16:13;17.10;;;8.68;;
56419;SDS011;42323;52.170;7.538;2022-11-20T21:18:42;18.85;;;10.35;;
56419;SDS011;42323;52.170;7.538;2022-11-20T21:21:11;17.23;;;9.88;;
56419;SDS011;42323;52.170;7.538;2022-11-20T21:23:57;20.73;;;10.10;;
56419;SDS011;42323;52.170;7.538;2022-11-20T21:26:24;16.75;;;9.73;;
56419;SDS011;42323;52.170;7.538;2022-11-20T21:28:51;20.77;;;10.35;;
56419;SDS011;42323;52.170;7.538;2022-11-20T21:31:20;20.35;;;10.65;;
56419;SDS011;42323;52.170;7.538;2022-11-20T21:33:50;20.20;;;10.60;;
56419;SDS011;42323;52.170;7.538;2022-11-20T21:36:19;21.33;;;10.70;;
56419;SDS011;42323;52.170;7.538;2022-11-20T21:38:50;20.48;;;9.38;;
56419;SDS011;42323;52.170;7.538;2022-11-20T21:41:17;19.35;;;9.45;;
56419;SDS011;42323;52.170;7.538;2022-11-20T21:43:45;16.85;;;9.75;;
56419;SDS011;42323;52.170;7.538;2022-11-20T21:46:24;16.83;;;8.57;;
56419;SDS011;42323;52.170;7.538;2022-11-20T21:48:51;18.25;;;9.27;;
56419;SDS011;42323;52.170;7.538;2022-11-20T21:51:19;19.38;;;9.35;;
56419;SDS011;42323;52.170;7.538;2022-11-20T21:53:48;15.02;;;8.48;;
56419;SDS011;42323;52.170;7.538;2022-11-20T21:56:17;20.15;;;10.52;;
56419;SDS011;42323;52.170;7.538;2022-11-20T21:58:46;19.83;;;10.57;;
56419;SDS011;42323;52.170;7.538;2022-11-20T22:01:14;22.80;;;10.35;;
56419;SDS011;42323;52.170;7.538;2022-11-20T22:03:45;19.95;;;11.20;;
56419;SDS011;42323;52.170;7.538;2022-11-20T22:06:14;17.23;;;8.63;;
56419;SDS011;42323;52.170;7.538;2022-11-20T22:08:42;19.63;;;10.65;;
56419;SDS011;42323;52.170;7.538;2022-11-20T22:11:10;16.63;;;9.88;;
56419;SDS011;42323;52.170;7.538;2022-11-20T22:13:39;21.83;;;9.65;;
56419;SDS011;42323;52.170;7.538;2022-11-20T22:16:24;14.10;;;8.90;;
56419;SDS011;42323;52.170;7.538;2022-11-20T22:18:52;13.32;;;8.35;;
56419;SDS011;42323;52.170;7.538;2022-11-20T22:21:21;16.55;;;9.75;;
56419;SDS011;42323;52.170;7.538;2022-11-20T22:23:49;15.77;;;8.50;;
56419;SDS011;42323;52.170;7.538;2022-11-20T22:26:18;18.55;;;9.43;;
56419;SDS011;42323;52.170;7.538;2022-11-20T22:28:49;15.25;;;8.40;;
56419;SDS011;42323;52.170;7.538;2022-11-20T22:31:18;17.13;;;8.77;;
56419;SDS011;42323;52.170;7.538;2022-11-20T22:33:47;13.52;;;8.82;;
56419;SDS011;42323;52.170;7.538;2022-11-20T22:36:15;21.60;;;10.32;;
56419;SDS011;42323;52.170;7.538;2022-11-20T22:38:50;16.70;;;9.13;;
56419;SDS011;42323;52.170;7.538;2022-11-20T22:41:18;16.58;;;8.48;;
56419;SDS011;42323;52.170;7.538;2022-11-20T22:43:46;18.23;;;8.50;;
56419;SDS011;42323;52.170;7.538;2022-11-20T22:46:14;12.68;;;8.10;;
56419;SDS011;42323;52.170;7.538;2022-11-20T22:51:24;15.70;;;8.82;;
56419;SDS011;42323;52.170;7.538;2022-11-20T22:53:52;16.75;;;10.02;;
56419;SDS011;42323;52.170;7.538;2022-11-20T22:56:19;15.88;;;8.35;;
56419;SDS011;42323;52.170;7.538;2022-11-20T22:58:47;17.45;;;8.43;;
56419;SDS011;42323;52.170;7.538;2022-11-20T23:01:17;19.55;;;9.63;;
56419;SDS011;42323;52.170;7.538;2022-11-20T23:03:44;16.20;;;9.00;;
56419;SDS011;42323;52.170;7.538;2022-11-20T23:06:14;17.48;;;9.60;;
56419;SDS011;42323;52.170;7.538;2022-11-20T23:08:41;21.60;;;9.90;;
56419;SDS011;42323;52.170;7.538;2022-11-20T23:11:10;16.50;;;10.13;;
56419;SDS011;42323;52.170;7.538;2022-11-20T23:13:39;18.05;;;8.88;;
56419;SDS011;42323;52.170;7.538;2022-11-20T23:18:34;18.13;;;9.32;;
56419;SDS011;42323;52.170;7.538;2022-11-20T23:21:05;21.45;;;11.82;;
56419;SDS011;42323;52.170;7.538;2022-11-20T23:23:33;21.02;;;9.90;;
56419;SDS011;42323;52.170;7.538;2022-11-20T23:26:04;16.00;;;9.05;;
56419;SDS011;42323;52.170;7.538;2022-11-20T23:28:38;20.05;;;10.55;;
56419;SDS011;42323;52.170;7.538;2022-11-20T23:31:06;18.10;;;11.32;;
56419;SDS011;42323;52.170;7.538;2022-11-20T23:33:36;23.95;;;11.40;;
56419;SDS011;42323;52.170;7.538;2022-11-20T23:36:04;19.10;;;10.82;;
56419;SDS011;42323;52.170;7.538;2022-11-20T23:38:32;24.05;;;12.65;;
56419;SDS011;42323;52.170;7.538;2022-11-20T23:40:59;19.77;;;10.95;;
56419;SDS011;42323;52.170;7.538;2022-11-20T23:43:27;20.88;;;10.20;;
56419;SDS011;42323;52.170;7.538;2022-11-20T23:45:55;20.08;;;11.55;;